sensor_id;sensor_type;location;lat;lon;timestamp;P1;durP1;ratioP1;P2;durP2;ratioP2
53867;SDS011;41577;47.470;19.080;2022-08-23T12:50:18;3.88;;;2.40;;
53867;SDS011;41577;47.470;19.080;2022-08-23T12:50:39;15.38;;;2.80;;
53867;SDS011;41577;47.470;19.080;2022-08-23T12:50:56;4.00;;;2.08;;
53867;SDS011;41577;47.470;19.080;2022-08-23T12:51:12;8.43;;;2.03;;
53867;SDS011;41577;47.470;19.080;2022-08-23T12:51:28;9.52;;;2.20;;
53867;SDS011;41577;47.470;19.080;2022-08-23T12:51:46;5.28;;;2.28;;
53867;SDS011;41577;47.470;19.080;2022-08-23T12:52:06;6.72;;;2.53;;
53867;SDS011;41577;47.470;19.080;2022-08-23T12:52:23;6.30;;;2.47;;
53867;SDS011;41577;47.470;19.080;2022-08-23T12:52:39;4.57;;;2.55;;
53867;SDS011;41577;47.470;19.080;2022-08-23T12:52:56;3.72;;;2.38;;
53867;SDS011;41577;47.470;19.080;2022-08-23T12:53:14;2.77;;;2.03;;
53867;SDS011;41577;47.470;19.080;2022-08-23T12:53:38;3.50;;;1.73;;
53867;SDS011;41577;47.470;19.080;2022-08-23T12:53:54;2.58;;;2.17;;
53867;SDS011;41577;47.470;19.080;2022-08-23T12:54:13;2.33;;;2.13;;
53867;SDS011;41577;47.470;19.080;2022-08-23T12:54:32;3.45;;;2.15;;
53867;SDS011;41577;47.470;19.080;2022-08-23T12:54:49;3.45;;;2.20;;
53867;SDS011;41577;47.470;19.080;2022-08-23T12:55:11;6.72;;;2.20;;
53867;SDS011;41577;47.470;19.080;2022-08-23T12:55:29;7.63;;;2.10;;
53867;SDS011;41577;47.470;19.080;2022-08-23T12:55:45;3.80;;;2.47;;
53867;SDS011;41577;47.470;19.080;2022-08-23T12:56:04;3.00;;;2.22;;
53867;SDS011;41577;47.470;19.080;2022-08-23T12:56:22;2.33;;;2.13;;
53867;SDS011;41577;47.470;19.080;2022-08-23T12:56:38;5.38;;;2.40;;
53867;SDS011;41577;47.470;19.080;2022-08-23T12:56:53;5.68;;;2.45;;
53867;SDS011;41577;47.470;19.080;2022-08-23T12:57:11;3.78;;;2.47;;
53867;SDS011;41577;47.470;19.080;2022-08-23T12:57:31;2.20;;;2.00;;
53867;SDS011;41577;47.470;19.080;2022-08-23T12:57:49;4.85;;;1.90;;
53867;SDS011;41577;47.470;19.080;2022-08-23T12:58:08;4.32;;;1.98;;
53867;SDS011;41577;47.470;19.080;2022-08-23T12:58:25;4.75;;;2.45;;
53867;SDS011;41577;47.470;19.080;2022-08-23T12:58:43;2.80;;;2.42;;
53867;SDS011;41577;47.470;19.080;2022-08-23T12:59:03;2.13;;;1.92;;
53867;SDS011;41577;47.470;19.080;2022-08-23T12:59:26;2.70;;;2.00;;
53867;SDS011;41577;47.470;19.080;2022-08-23T12:59:46;3.17;;;2.00;;
53867;SDS011;41577;47.470;19.080;2022-08-23T13:00:07;2.08;;;1.98;;
53867;SDS011;41577;47.470;19.080;2022-08-23T13:00:30;1.80;;;1.67;;
53867;SDS011;41577;47.470;19.080;2022-08-23T13:00:50;3.50;;;1.90;;
53867;SDS011;41577;47.470;19.080;2022-08-23T13:01:06;4.97;;;2.03;;
53867;SDS011;41577;47.470;19.080;2022-08-23T13:01:31;2.40;;;1.92;;
53867;SDS011;41577;47.470;19.080;2022-08-23T13:01:47;2.88;;;2.20;;
53867;SDS011;41577;47.470;19.080;2022-08-23T13:02:01;4.50;;;2.25;;
53867;SDS011;41577;47.470;19.080;2022-08-23T13:02:19;3.67;;;1.75;;
53867;SDS011;41577;47.470;19.080;2022-08-23T13:02:37;2.25;;;1.95;;
53867;SDS011;41577;47.470;19.080;2022-08-23T13:02:54;3.17;;;2.00;;
53867;SDS011;41577;47.470;19.080;2022-08-23T13:03:11;3.38;;;1.92;;
53867;SDS011;41577;47.470;19.080;2022-08-23T13:03:29;5.43;;;2.28;;
53867;SDS011;41577;47.470;19.080;2022-08-23T13:03:47;7.72;;;2.17;;
53867;SDS011;41577;47.470;19.080;2022-08-23T13:04:08;7.50;;;1.80;;
53867;SDS011;41577;47.470;19.080;2022-08-23T13:04:25;1.90;;;1.80;;
53867;SDS011;41577;47.470;19.080;2022-08-23T13:04:41;1.95;;;1.85;;
53867;SDS011;41577;47.470;19.080;2022-08-23T13:04:58;1.98;;;1.80;;
53867;SDS011;41577;47.470;19.080;2022-08-23T13:05:19;3.95;;;1.80;;
53867;SDS011;41577;47.470;19.080;2022-08-23T13:05:40;3.63;;;2.13;;
53867;SDS011;41577;47.470;19.080;2022-08-23T13:05:58;3.88;;;1.92;;
53867;SDS011;41577;47.470;19.080;2022-08-23T13:06:14;3.00;;;1.80;;
53867;SDS011;41577;47.470;19.080;2022-08-23T13:06:35;4.00;;;2.00;;
53867;SDS011;41577;47.470;19.080;2022-08-23T13:06:55;4.30;;;1.98;;
53867;SDS011;41577;47.470;19.080;2022-08-23T13:07:14;2.05;;;1.80;;
53867;SDS011;41577;47.470;19.080;2022-08-23T13:07:31;2.70;;;2.05;;
53867;SDS011;41577;47.470;19.080;2022-08-23T13:07:46;7.07;;;2.20;;
53867;SDS011;41577;47.470;19.080;2022-08-23T13:08:03;9.85;;;2.28;;
53867;SDS011;41577;47.470;19.080;2022-08-23T13:08:20;2.67;;;2.17;;
53867;SDS011;41577;47.470;19.080;2022-08-23T13:08:38;1.95;;;1.77;;
53867;SDS011;41577;47.470;19.080;2022-08-23T13:08:56;8.05;;;2.00;;
53867;SDS011;41577;47.470;19.080;2022-08-23T13:09:13;8.60;;;1.95;;
53867;SDS011;41577;47.470;19.080;2022-08-23T13:09:33;6.05;;;2.17;;
53867;SDS011;41577;47.470;19.080;2022-08-23T13:09:50;4.00;;;2.00;;
53867;SDS011;41577;47.470;19.080;2022-08-23T13:10:05;2.80;;;1.98;;
53867;SDS011;41577;47.470;19.080;2022-08-23T13:10:21;6.30;;;2.00;;
53867;SDS011;41577;47.470;19.080;2022-08-23T13:10:37;7.20;;;1.95;;
53867;SDS011;41577;47.470;19.080;2022-08-23T13:10:54;9.00;;;2.13;;
53867;SDS011;41577;47.470;19.080;2022-08-23T13:11:09;7.53;;;2.13;;
53867;SDS011;41577;47.470;19.080;2022-08-23T13:11:26;3.35;;;2.03;;
53867;SDS011;41577;47.470;19.080;2022-08-23T13:11:44;4.00;;;2.08;;
53867;SDS011;41577;47.470;19.080;2022-08-23T13:11:59;2.80;;;1.90;;
53867;SDS011;41577;47.470;19.080;2022-08-23T13:12:15;2.72;;;1.92;;
53867;SDS011;41577;47.470;19.080;2022-08-23T13:12:31;3.08;;;2.28;;
53867;SDS011;41577;47.470;19.080;2022-08-23T13:12:46;3.15;;;2.40;;
53867;SDS011;41577;47.470;19.080;2022-08-23T13:13:01;3.67;;;2.30;;
53867;SDS011;41577;47.470;19.080;2022-08-23T13:13:17;8.65;;;2.20;;
53867;SDS011;41577;47.470;19.080;2022-08-23T13:13:36;6.77;;;1.97;;
53867;SDS011;41577;47.470;19.080;2022-08-23T13:13:51;3.95;;;2.20;;
53867;SDS011;41577;47.470;19.080;2022-08-23T13:14:41;3.42;;;2.13;;
53867;SDS011;41577;47.470;19.080;2022-08-23T13:14:57;3.85;;;1.80;;
53867;SDS011;41577;47.470;19.080;2022-08-23T13:15:58;3.67;;;2.17;;
53867;SDS011;41577;47.470;19.080;2022-08-23T13:16:24;5.45;;;2.20;;
53867;SDS011;41577;47.470;19.080;2022-08-23T13:16:42;6.22;;;2.40;;
53867;SDS011;41577;47.470;19.080;2022-08-23T13:16:56;3.25;;;1.92;;
53867;SDS011;41577;47.470;19.080;2022-08-23T13:17:29;2.55;;;2.05;;
53867;SDS011;41577;47.470;19.080;2022-08-23T13:17:57;3.78;;;2.30;;
53867;SDS011;41577;47.470;19.080;2022-08-23T13:18:22;7.65;;;2.47;;
53867;SDS011;41577;47.470;19.080;2022-08-23T13:18:40;5.22;;;2.00;;
53867;SDS011;41577;47.470;19.080;2022-08-23T13:18:55;5.15;;;2.03;;
53867;SDS011;41577;47.470;19.080;2022-08-23T13:19:28;3.00;;;2.15;;
53867;SDS011;41577;47.470;19.080;2022-08-23T13:19:44;3.25;;;2.38;;
53867;SDS011;41577;47.470;19.080;2022-08-23T13:20:20;3.13;;;2.33;;
53867;SDS011;41577;47.470;19.080;2022-08-23T13:20:36;2.33;;;2.03;;
53867;SDS011;41577;47.470;19.080;2022-08-23T13:21:30;5.07;;;2.22;;
53867;SDS011;41577;47.470;19.080;2022-08-23T13:21:44;7.00;;;2.63;;
53867;SDS011;41577;47.470;19.080;2022-08-23T13:22:09;14.95;;;3.85;;
53867;SDS011;41577;47.470;19.080;2022-08-23T13:22:24;2.92;;;2.17;;
53867;SDS011;41577;47.470;19.080;2022-08-23T13:22:53;3.05;;;2.00;;
53867;SDS011;41577;47.470;19.080;2022-08-23T13:23:09;3.00;;;2.00;;
53867;SDS011;41577;47.470;19.080;2022-08-23T13:23:27;2.88;;;1.80;;
53867;SDS011;41577;47.470;19.080;2022-08-23T13:23:41;2.65;;;1.70;;
53867;SDS011;41577;47.470;19.080;2022-08-23T13:23:56;6.95;;;1.83;;
53867;SDS011;41577;47.470;19.080;2022-08-23T13:24:31;7.75;;;2.22;;
53867;SDS011;41577;47.470;19.080;2022-08-23T13:24:59;21.27;;;3.20;;
53867;SDS011;41577;47.470;19.080;2022-08-23T13:25:23;6.40;;;2.15;;
53867;SDS011;41577;47.470;19.080;2022-08-23T13:25:40;16.75;;;2.38;;
53867;SDS011;41577;47.470;19.080;2022-08-23T13:25:56;11.75;;;2.47;;
53867;SDS011;41577;47.470;19.080;2022-08-23T13:26:41;4.50;;;2.20;;
53867;SDS011;41577;47.470;19.080;2022-08-23T13:27:09;3.88;;;2.20;;
53867;SDS011;41577;47.470;19.080;2022-08-23T13:27:37;8.13;;;2.65;;
53867;SDS011;41577;47.470;19.080;2022-08-23T13:28:04;7.97;;;2.53;;
53867;SDS011;41577;47.470;19.080;2022-08-23T13:28:33;5.40;;;2.40;;
53867;SDS011;41577;47.470;19.080;2022-08-23T13:28:59;2.00;;;1.65;;
53867;SDS011;41577;47.470;19.080;2022-08-23T13:29:19;4.35;;;2.05;;
53867;SDS011;41577;47.470;19.080;2022-08-23T13:29:38;10.90;;;2.13;;
53867;SDS011;41577;47.470;19.080;2022-08-23T13:30:02;3.38;;;1.80;;
53867;SDS011;41577;47.470;19.080;2022-08-23T13:30:34;5.00;;;2.40;;
53867;SDS011;41577;47.470;19.080;2022-08-23T13:30:56;2.65;;;2.05;;
53867;SDS011;41577;47.470;19.080;2022-08-23T13:31:11;3.15;;;2.10;;
53867;SDS011;41577;47.470;19.080;2022-08-23T13:31:25;2.28;;;2.08;;
53867;SDS011;41577;47.470;19.080;2022-08-23T13:31:52;2.25;;;2.03;;
53867;SDS011;41577;47.470;19.080;2022-08-23T13:32:22;4.57;;;1.88;;
53867;SDS011;41577;47.470;19.080;2022-08-23T13:32:40;2.40;;;1.92;;
53867;SDS011;41577;47.470;19.080;2022-08-23T13:33:33;2.22;;;2.13;;
53867;SDS011;41577;47.470;19.080;2022-08-23T13:33:51;2.22;;;2.00;;
53867;SDS011;41577;47.470;19.080;2022-08-23T13:34:05;2.97;;;1.83;;
53867;SDS011;41577;47.470;19.080;2022-08-23T13:34:35;3.08;;;1.92;;
53867;SDS011;41577;47.470;19.080;2022-08-23T13:34:51;2.40;;;1.85;;
53867;SDS011;41577;47.470;19.080;2022-08-23T13:35:28;2.05;;;1.80;;
53867;SDS011;41577;47.470;19.080;2022-08-23T13:35:45;3.45;;;2.22;;
53867;SDS011;41577;47.470;19.080;2022-08-23T13:36:04;5.50;;;2.13;;
53867;SDS011;41577;47.470;19.080;2022-08-23T13:36:22;6.40;;;2.25;;
53867;SDS011;41577;47.470;19.080;2022-08-23T13:36:37;7.10;;;2.27;;
53867;SDS011;41577;47.470;19.080;2022-08-23T13:36:56;7.13;;;2.08;;
53867;SDS011;41577;47.470;19.080;2022-08-23T13:37:18;8.43;;;2.30;;
53867;SDS011;41577;47.470;19.080;2022-08-23T13:37:33;6.90;;;2.30;;
53867;SDS011;41577;47.470;19.080;2022-08-23T13:37:47;3.70;;;1.93;;
53867;SDS011;41577;47.470;19.080;2022-08-23T13:38:08;2.55;;;1.75;;
53867;SDS011;41577;47.470;19.080;2022-08-23T13:38:28;3.28;;;2.20;;
53867;SDS011;41577;47.470;19.080;2022-08-23T13:38:44;6.57;;;2.33;;
53867;SDS011;41577;47.470;19.080;2022-08-23T13:39:03;5.88;;;2.20;;
53867;SDS011;41577;47.470;19.080;2022-08-23T13:39:17;2.60;;;1.90;;
53867;SDS011;41577;47.470;19.080;2022-08-23T13:39:32;3.63;;;2.13;;
53867;SDS011;41577;47.470;19.080;2022-08-23T13:39:49;7.43;;;2.78;;
53867;SDS011;41577;47.470;19.080;2022-08-23T13:40:07;6.55;;;2.75;;
53867;SDS011;41577;47.470;19.080;2022-08-23T13:40:28;3.30;;;2.30;;
53867;SDS011;41577;47.470;19.080;2022-08-23T13:40:44;2.40;;;2.20;;
53867;SDS011;41577;47.470;19.080;2022-08-23T13:41:25;3.60;;;2.00;;
53867;SDS011;41577;47.470;19.080;2022-08-23T13:41:43;7.05;;;2.22;;
53867;SDS011;41577;47.470;19.080;2022-08-23T13:41:57;4.93;;;2.25;;
53867;SDS011;41577;47.470;19.080;2022-08-23T13:42:11;2.63;;;2.15;;
53867;SDS011;41577;47.470;19.080;2022-08-23T13:42:25;4.28;;;2.17;;
53867;SDS011;41577;47.470;19.080;2022-08-23T13:42:45;9.98;;;2.35;;
53867;SDS011;41577;47.470;19.080;2022-08-23T13:43:03;11.30;;;2.88;;
53867;SDS011;41577;47.470;19.080;2022-08-23T13:43:20;10.25;;;2.83;;
53867;SDS011;41577;47.470;19.080;2022-08-23T13:43:37;6.97;;;2.63;;
53867;SDS011;41577;47.470;19.080;2022-08-23T13:43:57;10.57;;;3.03;;
53867;SDS011;41577;47.470;19.080;2022-08-23T13:44:17;19.08;;;2.92;;
53867;SDS011;41577;47.470;19.080;2022-08-23T13:44:33;16.90;;;2.65;;
53867;SDS011;41577;47.470;19.080;2022-08-23T13:44:47;7.72;;;2.65;;
53867;SDS011;41577;47.470;19.080;2022-08-23T13:45:07;7.88;;;2.97;;
53867;SDS011;41577;47.470;19.080;2022-08-23T13:45:26;14.55;;;2.38;;
53867;SDS011;41577;47.470;19.080;2022-08-23T13:45:45;8.63;;;2.42;;
53867;SDS011;41577;47.470;19.080;2022-08-23T13:46:10;10.50;;;2.22;;
53867;SDS011;41577;47.470;19.080;2022-08-23T13:46:28;4.00;;;2.47;;
53867;SDS011;41577;47.470;19.080;2022-08-23T13:46:45;4.18;;;2.28;;
53867;SDS011;41577;47.470;19.080;2022-08-23T13:47:00;4.40;;;2.20;;
53867;SDS011;41577;47.470;19.080;2022-08-23T13:47:20;5.07;;;2.47;;
53867;SDS011;41577;47.470;19.080;2022-08-23T13:47:36;5.55;;;2.70;;
53867;SDS011;41577;47.470;19.080;2022-08-23T13:47:54;4.65;;;2.60;;
53867;SDS011;41577;47.470;19.080;2022-08-23T13:48:12;3.47;;;2.45;;
53867;SDS011;41577;47.470;19.080;2022-08-23T13:48:29;3.38;;;2.50;;
53867;SDS011;41577;47.470;19.080;2022-08-23T13:48:48;5.70;;;2.10;;
53867;SDS011;41577;47.470;19.080;2022-08-23T13:49:04;5.90;;;1.80;;
53867;SDS011;41577;47.470;19.080;2022-08-23T13:49:24;2.47;;;1.83;;
53867;SDS011;41577;47.470;19.080;2022-08-23T13:49:40;3.30;;;2.15;;
53867;SDS011;41577;47.470;19.080;2022-08-23T13:49:55;5.78;;;2.13;;
53867;SDS011;41577;47.470;19.080;2022-08-23T13:50:13;6.30;;;2.50;;
53867;SDS011;41577;47.470;19.080;2022-08-23T13:50:32;4.15;;;2.67;;
53867;SDS011;41577;47.470;19.080;2022-08-23T13:50:47;6.07;;;2.65;;
53867;SDS011;41577;47.470;19.080;2022-08-23T13:51:41;3.40;;;2.30;;
53867;SDS011;41577;47.470;19.080;2022-08-23T13:52:14;2.47;;;2.28;;
53867;SDS011;41577;47.470;19.080;2022-08-23T13:52:28;2.50;;;2.20;;
53867;SDS011;41577;47.470;19.080;2022-08-23T13:52:44;2.55;;;2.00;;
53867;SDS011;41577;47.470;19.080;2022-08-23T13:52:58;2.13;;;1.92;;
53867;SDS011;41577;47.470;19.080;2022-08-23T13:53:13;2.97;;;2.42;;
53867;SDS011;41577;47.470;19.080;2022-08-23T13:53:27;3.13;;;2.33;;
53867;SDS011;41577;47.470;19.080;2022-08-23T13:53:41;3.63;;;2.30;;
53867;SDS011;41577;47.470;19.080;2022-08-23T13:53:57;4.13;;;2.38;;
53867;SDS011;41577;47.470;19.080;2022-08-23T13:54:13;3.03;;;2.08;;
53867;SDS011;41577;47.470;19.080;2022-08-23T13:54:29;2.30;;;2.10;;
53867;SDS011;41577;47.470;19.080;2022-08-23T13:54:45;10.02;;;2.22;;
53867;SDS011;41577;47.470;19.080;2022-08-23T13:55:01;11.50;;;2.20;;
53867;SDS011;41577;47.470;19.080;2022-08-23T13:55:15;3.58;;;2.15;;
53867;SDS011;41577;47.470;19.080;2022-08-23T13:55:30;2.40;;;2.20;;
53867;SDS011;41577;47.470;19.080;2022-08-23T13:55:47;2.38;;;2.17;;
53867;SDS011;41577;47.470;19.080;2022-08-23T13:56:11;2.42;;;1.98;;
53867;SDS011;41577;47.470;19.080;2022-08-23T13:56:27;2.10;;;1.90;;
53867;SDS011;41577;47.470;19.080;2022-08-23T13:56:44;2.33;;;2.13;;
53867;SDS011;41577;47.470;19.080;2022-08-23T13:57:01;2.63;;;2.05;;
53867;SDS011;41577;47.470;19.080;2022-08-23T13:57:18;2.50;;;2.17;;
53867;SDS011;41577;47.470;19.080;2022-08-23T13:57:36;3.25;;;2.13;;
53867;SDS011;41577;47.470;19.080;2022-08-23T13:57:51;3.22;;;2.08;;
53867;SDS011;41577;47.470;19.080;2022-08-23T13:58:07;2.40;;;2.05;;
53867;SDS011;41577;47.470;19.080;2022-08-23T13:58:24;2.30;;;2.03;;
53867;SDS011;41577;47.470;19.080;2022-08-23T13:58:42;2.15;;;1.95;;
53867;SDS011;41577;47.470;19.080;2022-08-23T13:59:15;2.65;;;1.98;;
53867;SDS011;41577;47.470;19.080;2022-08-23T13:59:33;3.03;;;2.00;;
53867;SDS011;41577;47.470;19.080;2022-08-23T13:59:50;9.15;;;2.95;;
53867;SDS011;41577;47.470;19.080;2022-08-23T14:00:07;4.28;;;2.60;;
53867;SDS011;41577;47.470;19.080;2022-08-23T14:00:22;3.83;;;2.30;;
53867;SDS011;41577;47.470;19.080;2022-08-23T14:00:37;3.63;;;2.53;;
53867;SDS011;41577;47.470;19.080;2022-08-23T14:00:51;2.65;;;2.45;;
53867;SDS011;41577;47.470;19.080;2022-08-23T14:01:06;2.22;;;2.13;;
53867;SDS011;41577;47.470;19.080;2022-08-23T14:01:28;2.22;;;2.03;;
53867;SDS011;41577;47.470;19.080;2022-08-23T14:01:43;2.33;;;2.13;;
53867;SDS011;41577;47.470;19.080;2022-08-23T14:01:58;3.15;;;2.25;;
53867;SDS011;41577;47.470;19.080;2022-08-23T14:02:15;3.20;;;2.22;;
53867;SDS011;41577;47.470;19.080;2022-08-23T14:02:31;5.10;;;1.90;;
53867;SDS011;41577;47.470;19.080;2022-08-23T14:02:45;5.07;;;1.90;;
53867;SDS011;41577;47.470;19.080;2022-08-23T14:03:01;2.40;;;2.20;;
53867;SDS011;41577;47.470;19.080;2022-08-23T14:03:15;2.28;;;2.08;;
53867;SDS011;41577;47.470;19.080;2022-08-23T14:03:29;1.90;;;1.80;;
53867;SDS011;41577;47.470;19.080;2022-08-23T14:03:45;2.95;;;1.80;;
53867;SDS011;41577;47.470;19.080;2022-08-23T14:03:59;4.03;;;1.75;;
53867;SDS011;41577;47.470;19.080;2022-08-23T14:04:14;2.50;;;1.65;;
53867;SDS011;41577;47.470;19.080;2022-08-23T14:04:28;2.10;;;1.67;;
53867;SDS011;41577;47.470;19.080;2022-08-23T14:04:42;2.95;;;1.85;;
53867;SDS011;41577;47.470;19.080;2022-08-23T14:04:56;3.17;;;1.80;;
53867;SDS011;41577;47.470;19.080;2022-08-23T14:05:10;2.63;;;1.95;;
53867;SDS011;41577;47.470;19.080;2022-08-23T14:05:25;2.90;;;2.05;;
53867;SDS011;41577;47.470;19.080;2022-08-23T14:05:41;3.05;;;2.08;;
53867;SDS011;41577;47.470;19.080;2022-08-23T14:05:55;2.38;;;2.17;;
53867;SDS011;41577;47.470;19.080;2022-08-23T14:06:09;2.42;;;2.17;;
53867;SDS011;41577;47.470;19.080;2022-08-23T14:06:24;2.75;;;2.08;;
53867;SDS011;41577;47.470;19.080;2022-08-23T14:06:37;2.30;;;1.73;;
53867;SDS011;41577;47.470;19.080;2022-08-23T14:06:52;2.67;;;1.80;;
53867;SDS011;41577;47.470;19.080;2022-08-23T14:07:07;2.90;;;2.10;;
53867;SDS011;41577;47.470;19.080;2022-08-23T14:07:22;2.30;;;2.10;;
53867;SDS011;41577;47.470;19.080;2022-08-23T14:07:36;2.00;;;1.90;;
53867;SDS011;41577;47.470;19.080;2022-08-23T14:07:50;2.00;;;1.88;;
53867;SDS011;41577;47.470;19.080;2022-08-23T14:08:06;2.30;;;2.10;;
53867;SDS011;41577;47.470;19.080;2022-08-23T14:08:21;2.40;;;2.10;;
53867;SDS011;41577;47.470;19.080;2022-08-23T14:08:37;2.28;;;2.05;;
53867;SDS011;41577;47.470;19.080;2022-08-23T14:08:51;2.65;;;2.10;;
53867;SDS011;41577;47.470;19.080;2022-08-23T14:09:05;2.67;;;2.00;;
53867;SDS011;41577;47.470;19.080;2022-08-23T14:09:20;2.95;;;2.22;;
53867;SDS011;41577;47.470;19.080;2022-08-23T14:09:35;2.88;;;2.33;;
53867;SDS011;41577;47.470;19.080;2022-08-23T14:09:50;3.15;;;2.75;;
53867;SDS011;41577;47.470;19.080;2022-08-23T14:10:04;3.58;;;2.70;;
53867;SDS011;41577;47.470;19.080;2022-08-23T14:10:19;3.65;;;2.22;;
53867;SDS011;41577;47.470;19.080;2022-08-23T14:10:33;3.17;;;2.20;;
53867;SDS011;41577;47.470;19.080;2022-08-23T14:10:49;5.25;;;2.13;;
53867;SDS011;41577;47.470;19.080;2022-08-23T14:11:04;4.60;;;1.75;;
53867;SDS011;41577;47.470;19.080;2022-08-23T14:11:18;2.67;;;1.90;;
53867;SDS011;41577;47.470;19.080;2022-08-23T14:11:32;4.57;;;2.20;;
53867;SDS011;41577;47.470;19.080;2022-08-23T14:11:48;4.53;;;2.50;;
53867;SDS011;41577;47.470;19.080;2022-08-23T14:12:08;3.25;;;2.85;;
53867;SDS011;41577;47.470;19.080;2022-08-23T14:12:28;3.03;;;2.75;;
53867;SDS011;41577;47.470;19.080;2022-08-23T14:12:45;4.07;;;3.13;;
53867;SDS011;41577;47.470;19.080;2022-08-23T14:13:00;3.67;;;2.50;;
53867;SDS011;41577;47.470;19.080;2022-08-23T14:13:14;3.80;;;2.08;;
53867;SDS011;41577;47.470;19.080;2022-08-23T14:13:30;3.63;;;2.35;;
53867;SDS011;41577;47.470;19.080;2022-08-23T14:13:46;2.90;;;2.60;;
53867;SDS011;41577;47.470;19.080;2022-08-23T14:14:02;2.80;;;2.40;;
53867;SDS011;41577;47.470;19.080;2022-08-23T14:14:17;2.88;;;2.10;;
53867;SDS011;41577;47.470;19.080;2022-08-23T14:14:31;3.10;;;2.20;;
53867;SDS011;41577;47.470;19.080;2022-08-23T14:14:47;3.35;;;2.28;;
53867;SDS011;41577;47.470;19.080;2022-08-23T14:15:03;3.10;;;2.17;;
53867;SDS011;41577;47.470;19.080;2022-08-23T14:15:19;3.90;;;2.38;;
53867;SDS011;41577;47.470;19.080;2022-08-23T14:15:34;4.63;;;2.30;;
53867;SDS011;41577;47.470;19.080;2022-08-23T14:15:48;2.70;;;2.08;;
53867;SDS011;41577;47.470;19.080;2022-08-23T14:16:04;4.88;;;2.05;;
53867;SDS011;41577;47.470;19.080;2022-08-23T14:16:22;7.07;;;2.50;;
53867;SDS011;41577;47.470;19.080;2022-08-23T14:16:39;4.00;;;2.60;;
53867;SDS011;41577;47.470;19.080;2022-08-23T14:16:54;2.78;;;2.50;;
53867;SDS011;41577;47.470;19.080;2022-08-23T14:17:08;3.97;;;2.60;;
53867;SDS011;41577;47.470;19.080;2022-08-23T14:17:23;4.43;;;2.38;;
53867;SDS011;41577;47.470;19.080;2022-08-23T14:17:39;3.38;;;2.20;;
53867;SDS011;41577;47.470;19.080;2022-08-23T14:17:54;2.22;;;1.92;;
53867;SDS011;41577;47.470;19.080;2022-08-23T14:18:12;2.10;;;2.00;;
53867;SDS011;41577;47.470;19.080;2022-08-23T14:18:26;2.17;;;2.05;;
53867;SDS011;41577;47.470;19.080;2022-08-23T14:18:41;3.13;;;2.03;;
53867;SDS011;41577;47.470;19.080;2022-08-23T14:18:56;4.20;;;2.25;;
53867;SDS011;41577;47.470;19.080;2022-08-23T14:19:10;2.63;;;2.10;;
53867;SDS011;41577;47.470;19.080;2022-08-23T14:19:25;2.35;;;1.90;;
53867;SDS011;41577;47.470;19.080;2022-08-23T14:19:40;4.97;;;1.98;;
53867;SDS011;41577;47.470;19.080;2022-08-23T14:19:55;4.40;;;2.00;;
53867;SDS011;41577;47.470;19.080;2022-08-23T14:20:09;3.15;;;2.13;;
53867;SDS011;41577;47.470;19.080;2022-08-23T14:20:24;2.70;;;2.13;;
53867;SDS011;41577;47.470;19.080;2022-08-23T14:20:39;2.60;;;2.20;;
53867;SDS011;41577;47.470;19.080;2022-08-23T14:20:55;2.45;;;2.25;;
53867;SDS011;41577;47.470;19.080;2022-08-23T14:21:09;2.22;;;2.08;;
53867;SDS011;41577;47.470;19.080;2022-08-23T14:21:23;2.20;;;2.00;;
53867;SDS011;41577;47.470;19.080;2022-08-23T14:21:39;3.60;;;2.15;;
53867;SDS011;41577;47.470;19.080;2022-08-23T14:21:53;3.45;;;2.05;;
53867;SDS011;41577;47.470;19.080;2022-08-23T14:22:08;12.38;;;2.75;;
53867;SDS011;41577;47.470;19.080;2022-08-23T14:22:23;13.07;;;3.03;;
53867;SDS011;41577;47.470;19.080;2022-08-23T14:22:36;7.50;;;2.30;;
53867;SDS011;41577;47.470;19.080;2022-08-23T14:22:51;7.90;;;2.40;;
53867;SDS011;41577;47.470;19.080;2022-08-23T14:23:05;7.40;;;2.37;;
53867;SDS011;41577;47.470;19.080;2022-08-23T14:23:19;8.20;;;2.15;;
53867;SDS011;41577;47.470;19.080;2022-08-23T14:23:33;5.43;;;2.45;;
53867;SDS011;41577;47.470;19.080;2022-08-23T14:23:48;3.88;;;2.63;;
53867;SDS011;41577;47.470;19.080;2022-08-23T14:24:03;6.05;;;2.65;;
53867;SDS011;41577;47.470;19.080;2022-08-23T14:24:17;6.00;;;2.55;;
53867;SDS011;41577;47.470;19.080;2022-08-23T14:24:31;6.28;;;2.47;;
53867;SDS011;41577;47.470;19.080;2022-08-23T14:24:45;8.33;;;2.77;;
53867;SDS011;41577;47.470;19.080;2022-08-23T14:25:00;4.78;;;2.70;;
53867;SDS011;41577;47.470;19.080;2022-08-23T14:25:14;2.88;;;2.20;;
53867;SDS011;41577;47.470;19.080;2022-08-23T14:25:28;4.28;;;2.25;;
53867;SDS011;41577;47.470;19.080;2022-08-23T14:25:43;6.25;;;2.75;;
53867;SDS011;41577;47.470;19.080;2022-08-23T14:25:58;7.70;;;2.83;;
53867;SDS011;41577;47.470;19.080;2022-08-23T14:26:13;6.00;;;2.50;;
53867;SDS011;41577;47.470;19.080;2022-08-23T14:26:29;3.55;;;2.63;;
53867;SDS011;41577;47.470;19.080;2022-08-23T14:26:43;10.20;;;2.92;;
53867;SDS011;41577;47.470;19.080;2022-08-23T14:26:57;9.68;;;2.67;;
53867;SDS011;41577;47.470;19.080;2022-08-23T14:27:12;4.22;;;2.22;;
53867;SDS011;41577;47.470;19.080;2022-08-23T14:27:27;3.97;;;2.13;;
53867;SDS011;41577;47.470;19.080;2022-08-23T14:27:41;2.47;;;2.20;;
53867;SDS011;41577;47.470;19.080;2022-08-23T14:27:57;2.25;;;2.15;;
53867;SDS011;41577;47.470;19.080;2022-08-23T14:28:11;2.53;;;2.33;;
53867;SDS011;41577;47.470;19.080;2022-08-23T14:28:27;3.40;;;2.60;;
53867;SDS011;41577;47.470;19.080;2022-08-23T14:28:43;4.03;;;2.63;;
53867;SDS011;41577;47.470;19.080;2022-08-23T14:28:58;4.43;;;2.65;;
53867;SDS011;41577;47.470;19.080;2022-08-23T14:29:12;5.22;;;2.63;;
53867;SDS011;41577;47.470;19.080;2022-08-23T14:29:26;4.65;;;2.67;;
53867;SDS011;41577;47.470;19.080;2022-08-23T14:29:41;3.50;;;2.53;;
53867;SDS011;41577;47.470;19.080;2022-08-23T14:29:56;3.45;;;2.55;;
53867;SDS011;41577;47.470;19.080;2022-08-23T14:30:14;5.55;;;2.42;;
53867;SDS011;41577;47.470;19.080;2022-08-23T14:30:35;6.07;;;2.42;;
53867;SDS011;41577;47.470;19.080;2022-08-23T14:30:50;3.20;;;2.47;;
53867;SDS011;41577;47.470;19.080;2022-08-23T14:31:04;2.97;;;2.33;;
53867;SDS011;41577;47.470;19.080;2022-08-23T14:31:20;3.47;;;2.10;;
53867;SDS011;41577;47.470;19.080;2022-08-23T14:31:36;2.65;;;2.03;;
53867;SDS011;41577;47.470;19.080;2022-08-23T14:31:50;1.90;;;1.80;;
53867;SDS011;41577;47.470;19.080;2022-08-23T14:32:04;2.13;;;2.00;;
53867;SDS011;41577;47.470;19.080;2022-08-23T14:32:18;6.18;;;2.47;;
53867;SDS011;41577;47.470;19.080;2022-08-23T14:32:34;6.30;;;2.47;;
53867;SDS011;41577;47.470;19.080;2022-08-23T14:32:50;2.63;;;2.42;;
53867;SDS011;41577;47.470;19.080;2022-08-23T14:33:05;2.53;;;2.33;;
53867;SDS011;41577;47.470;19.080;2022-08-23T14:33:19;4.40;;;2.13;;
53867;SDS011;41577;47.470;19.080;2022-08-23T14:33:34;4.07;;;2.05;;
53867;SDS011;41577;47.470;19.080;2022-08-23T14:33:49;4.45;;;2.35;;
53867;SDS011;41577;47.470;19.080;2022-08-23T14:34:04;5.35;;;2.83;;
53867;SDS011;41577;47.470;19.080;2022-08-23T14:34:18;3.22;;;2.70;;
53867;SDS011;41577;47.470;19.080;2022-08-23T14:34:33;2.95;;;2.55;;
53867;SDS011;41577;47.470;19.080;2022-08-23T14:34:47;3.42;;;2.47;;
53867;SDS011;41577;47.470;19.080;2022-08-23T14:35:02;4.18;;;2.75;;
53867;SDS011;41577;47.470;19.080;2022-08-23T14:35:17;3.53;;;2.88;;
53867;SDS011;41577;47.470;19.080;2022-08-23T14:35:31;3.80;;;2.90;;
53867;SDS011;41577;47.470;19.080;2022-08-23T14:35:45;3.70;;;2.90;;
53867;SDS011;41577;47.470;19.080;2022-08-23T14:36:01;4.13;;;2.78;;
53867;SDS011;41577;47.470;19.080;2022-08-23T14:36:16;4.75;;;2.53;;